createdAt,value
2023-02-28T00:03:09.766Z,112.63
2023-02-28T00:08:12.921Z,106.37
2023-02-28T00:13:15.400Z,96.57
2023-02-28T00:18:17.739Z,95.97
2023-02-28T00:23:20.171Z,97.50
2023-02-28T00:28:23.536Z,81.20
2023-02-28T00:33:25.885Z,80.27
2023-02-28T00:38:30.269Z,89.60
2023-02-28T00:43:38.338Z,92.83
2023-02-28T00:48:40.736Z,83.43
2023-02-28T00:53:43.050Z,152.00
2023-02-28T00:58:45.413Z,86.00
2023-02-28T01:03:47.765Z,83.10
2023-02-28T01:08:50.836Z,72.83
2023-02-28T01:13:53.278Z,64.03
2023-02-28T01:18:55.664Z,64.37
2023-02-28T01:23:58.925Z,63.87
2023-02-28T01:29:01.323Z,68.23
2023-02-28T01:34:04.495Z,64.87
2023-02-28T01:39:06.941Z,67.97
2023-02-28T01:44:47.272Z,57.87
2023-02-28T01:49:50.344Z,53.60
2023-02-28T01:54:56.706Z,57.00
2023-02-28T02:00:08.564Z,54.50
2023-02-28T02:05:19.767Z,62.93
2023-02-28T02:10:48.818Z,67.97
2023-02-28T02:16:10.437Z,65.57
2023-02-28T02:21:28.391Z,60.20
2023-02-28T02:26:45.941Z,67.77
2023-02-28T02:32:13.890Z,63.37
2023-02-28T02:37:41.767Z,68.57
2023-02-28T02:42:51.815Z,67.90
2023-02-28T02:47:58.040Z,71.43
2023-02-28T02:53:03.095Z,63.00
2023-02-28T02:58:11.787Z,63.17
2023-02-28T03:03:18.632Z,67.63
2023-02-28T03:08:21.047Z,58.30
2023-02-28T03:13:35.037Z,54.93
2023-02-28T03:18:53.225Z,58.93
2023-02-28T03:24:05.707Z,62.47
2023-02-28T03:29:14.348Z,65.27
2023-02-28T03:34:25.327Z,63.97
2023-02-28T03:39:40.065Z,62.27
2023-02-28T03:44:57.078Z,62.37
2023-02-28T03:50:07.727Z,59.00
2023-02-28T03:55:13.273Z,65.00
2023-02-28T04:00:19.970Z,64.90
2023-02-28T04:05:23.422Z,73.50
2023-02-28T04:10:25.749Z,72.47
2023-02-28T04:15:28.396Z,83.07
2023-02-28T04:20:30.688Z,66.83
2023-02-28T04:25:33.162Z,76.30
2023-02-28T04:30:35.618Z,216.33
2023-02-28T04:35:37.997Z,442.53
2023-02-28T04:40:40.349Z,952.97
2023-02-28T04:45:42.928Z,176.13
2023-02-28T04:50:45.314Z,66.93
2023-02-28T04:55:48.011Z,108.73
2023-02-28T05:00:51.541Z,121.37
2023-02-28T05:05:53.919Z,83.77
2023-02-28T05:10:56.366Z,73.67
2023-02-28T05:15:59.010Z,69.20
2023-02-28T05:21:03.488Z,62.30
2023-02-28T05:26:05.811Z,69.20
2023-02-28T05:31:11.932Z,72.17
2023-02-28T05:36:14.545Z,72.27
2023-02-28T05:41:17.863Z,64.67
2023-02-28T05:46:20.221Z,65.57
2023-02-28T05:51:22.593Z,63.43
2023-02-28T05:56:24.934Z,65.60
2023-02-28T06:01:39.421Z,75.40
2023-02-28T06:06:41.721Z,69.50
2023-02-28T06:11:44.329Z,66.83
2023-02-28T06:16:47.765Z,77.97
2023-02-28T06:21:53.317Z,75.00
2023-02-28T06:26:55.878Z,70.07
2023-02-28T06:31:58.284Z,66.07
2023-02-28T06:37:03.229Z,68.83
2023-02-28T06:42:05.739Z,73.47
2023-02-28T06:47:08.117Z,77.90
2023-02-28T06:52:10.949Z,77.27
2023-02-28T06:57:13.322Z,58.00
2023-02-28T07:02:15.659Z,66.47
2023-02-28T07:07:18.016Z,63.27
2023-02-28T07:12:20.496Z,62.77
2023-02-28T07:17:22.886Z,56.53
2023-02-28T07:22:26.048Z,54.70
2023-02-28T07:27:28.454Z,67.73
2023-02-28T07:32:31.005Z,55.50
2023-02-28T07:37:37.512Z,51.40
2023-02-28T07:42:42.450Z,53.97
2023-02-28T07:47:45.328Z,45.57
2023-02-28T07:52:47.819Z,49.90
2023-02-28T07:57:50.287Z,49.67
2023-02-28T08:02:52.753Z,40.23
2023-02-28T08:07:55.669Z,43.07
2023-02-28T08:12:58.107Z,53.43
2023-02-28T08:18:01.119Z,43.63
2023-02-28T08:23:03.526Z,41.17
2023-02-28T08:28:06.011Z,43.30
2023-02-28T08:33:08.529Z,42.67
2023-02-28T08:38:11.013Z,38.50
2023-02-28T08:43:13.447Z,42.80
2023-02-28T08:48:16.727Z,38.63
2023-02-28T08:53:20.683Z,35.53
2023-02-28T08:58:23.116Z,37.93
2023-02-28T09:03:25.920Z,33.47
2023-02-28T09:08:31.547Z,33.07
2023-02-28T09:13:34.568Z,35.97
2023-02-28T09:18:40.945Z,27.73
2023-02-28T09:23:45.022Z,33.73
2023-02-28T09:28:47.815Z,25.70
2023-02-28T09:33:51.555Z,34.13
2023-02-28T09:38:54.231Z,28.47
2023-02-28T09:43:59.732Z,29.10
2023-02-28T09:49:08.991Z,25.13
2023-02-28T09:54:23.883Z,21.20
2023-02-28T09:59:48.080Z,19.70
2023-02-28T10:04:59.249Z,26.30
2023-02-28T10:10:06.063Z,31.50
2023-02-28T10:15:17.940Z,29.30
2023-02-28T10:20:23.234Z,22.17
2023-02-28T10:25:29.154Z,29.23
2023-02-28T10:30:31.883Z,66.27
2023-02-28T10:35:34.873Z,24.20
2023-02-28T10:40:37.397Z,26.33
2023-02-28T10:45:39.959Z,26.40
2023-02-28T10:50:48.229Z,20.17
2023-02-28T10:56:10.861Z,22.10
2023-02-28T11:01:20.509Z,18.73
2023-02-28T11:06:28.319Z,16.73
2023-02-28T11:11:42.175Z,20.80
2023-02-28T11:16:44.682Z,20.90
2023-02-28T11:21:56.731Z,17.57
2023-02-28T11:26:59.167Z,24.20
2023-02-28T11:32:06.806Z,30.07
2023-02-28T11:37:19.018Z,19.17
2023-02-28T11:43:08.714Z,18.67
2023-02-28T11:48:26.938Z,17.40
2023-02-28T11:53:50.651Z,59.87
2023-02-28T11:58:59.006Z,36.60
2023-02-28T12:04:16.572Z,16.33
2023-02-28T12:09:44.479Z,17.93
2023-02-28T12:15:02.210Z,29.93
2023-02-28T12:20:22.691Z,18.67
2023-02-28T12:25:50.222Z,16.40
2023-02-28T12:31:34.485Z,19.70
2023-02-28T12:36:38.678Z,21.23
2023-02-28T12:41:47.321Z,35.30
2023-02-28T12:46:55.858Z,34.33
2023-02-28T12:52:00.831Z,27.80
2023-02-28T12:57:14.025Z,22.50
2023-02-28T13:02:42.356Z,21.57
2023-02-28T13:07:50.904Z,22.83
2023-02-28T13:12:56.034Z,31.50
2023-02-28T13:18:00.272Z,20.03
2023-02-28T13:23:03.314Z,21.87
2023-02-28T13:28:12.027Z,29.40
2023-02-28T13:33:39.851Z,33.83
2023-02-28T13:38:50.660Z,19.93
2023-02-28T13:44:13.194Z,19.20
2023-02-28T13:49:25.826Z,22.63
2023-02-28T13:54:37.081Z,43.03
2023-02-28T13:59:48.074Z,61.07
2023-02-28T14:05:02.213Z,22.30
2023-02-28T14:10:16.781Z,33.60
2023-02-28T14:15:36.281Z,27.77
2023-02-28T14:20:43.182Z,40.47
2023-02-28T14:26:06.088Z,24.53
2023-02-28T14:31:20.409Z,902.93
2023-02-28T14:36:37.703Z,261.70
2023-02-28T14:41:42.084Z,37.83
2023-02-28T14:46:45.801Z,44.63
2023-02-28T14:52:02.855Z,34.47
2023-02-28T14:57:06.142Z,20.33
2023-02-28T15:02:18.932Z,29.20
2023-02-28T15:07:29.621Z,59.90
2023-02-28T15:12:31.981Z,46.53
2023-02-28T15:17:35.961Z,31.07
2023-02-28T15:22:39.694Z,228.30
2023-02-28T15:27:47.893Z,53.67
2023-02-28T15:33:24.205Z,29.87
2023-02-28T15:38:28.116Z,469.23
2023-02-28T15:43:33.121Z,248.57
2023-02-28T15:48:45.539Z,438.37
2023-02-28T15:54:03.006Z,84.23
2023-02-28T15:59:08.523Z,56.53
2023-02-28T16:04:16.084Z,197.97
2023-02-28T16:09:18.401Z,117.53
2023-02-28T16:14:28.515Z,90.97
2023-02-28T16:19:34.579Z,133.70
2023-02-28T16:24:37.839Z,137.80
2023-02-28T16:29:40.788Z,108.13
2023-02-28T16:34:46.220Z,87.20
2023-02-28T16:39:50.896Z,91.73
2023-02-28T16:44:54.325Z,95.03
2023-02-28T16:49:57.336Z,225.40
2023-02-28T16:55:01.179Z,529.07
2023-02-28T17:00:05.749Z,380.83
2023-02-28T17:05:09.582Z,160.80
2023-02-28T17:10:26.948Z,106.73
2023-02-28T17:15:29.543Z,78.17
2023-02-28T17:20:31.941Z,68.40
2023-02-28T17:25:34.269Z,84.67
2023-02-28T17:30:36.687Z,94.83
2023-02-28T17:35:39.268Z,110.87
2023-02-28T17:40:41.648Z,153.20
2023-02-28T17:45:44.026Z,187.90
2023-02-28T17:50:46.611Z,225.00
2023-02-28T17:55:48.928Z,260.33
2023-02-28T18:00:54.842Z,347.40
2023-02-28T18:05:57.921Z,388.57
2023-02-28T18:11:00.511Z,286.10
2023-02-28T18:16:02.878Z,199.03
2023-02-28T18:21:06.512Z,221.17
2023-02-28T18:26:09.141Z,228.33
2023-02-28T18:31:15.499Z,208.83
2023-02-28T18:36:18.757Z,221.40
2023-02-28T18:41:21.824Z,184.70
2023-02-28T18:46:24.417Z,149.93
2023-02-28T18:51:28.201Z,153.37
2023-02-28T18:56:30.776Z,332.73
2023-02-28T19:01:34.599Z,227.53
2023-02-28T19:06:38.152Z,218.30
2023-02-28T19:11:40.633Z,218.83
2023-02-28T19:16:42.965Z,196.67
2023-02-28T19:21:45.372Z,229.40
2023-02-28T19:26:47.769Z,228.03
2023-02-28T19:31:50.423Z,183.90
2023-02-28T19:36:53.036Z,175.53
2023-02-28T19:41:55.424Z,178.20
2023-02-28T19:46:57.781Z,214.03
2023-02-28T19:52:00.671Z,250.00
2023-02-28T19:57:03.104Z,313.33
2023-02-28T20:02:06.480Z,332.03
2023-02-28T20:07:08.876Z,336.57
2023-02-28T20:12:23.159Z,294.83
2023-02-28T20:17:26.242Z,273.60
2023-02-28T20:22:28.779Z,393.40
2023-02-28T20:27:32.688Z,289.80
2023-02-28T20:32:36.313Z,357.00
2023-02-28T20:37:39.868Z,262.80
2023-02-28T20:42:42.205Z,227.40
2023-02-28T20:47:45.008Z,233.67
2023-02-28T20:52:47.487Z,358.43
2023-02-28T20:57:50.214Z,285.60
2023-02-28T21:02:52.614Z,467.13
2023-02-28T21:07:54.948Z,495.50
2023-02-28T21:12:57.964Z,544.10
2023-02-28T21:18:00.334Z,463.10
2023-02-28T21:23:02.754Z,431.10
2023-02-28T21:28:05.206Z,318.10
2023-02-28T21:33:07.714Z,367.50
2023-02-28T21:38:10.195Z,428.93
2023-02-28T21:43:12.520Z,445.53
2023-02-28T21:48:14.898Z,389.63
2023-02-28T21:53:17.193Z,406.13
2023-02-28T21:58:19.699Z,401.93
2023-02-28T22:03:22.045Z,208.10
2023-02-28T22:08:24.438Z,232.07
2023-02-28T22:13:26.943Z,289.87
2023-02-28T22:18:29.426Z,416.77
2023-02-28T22:23:32.406Z,428.83
2023-02-28T22:28:35.982Z,433.63
2023-02-28T22:33:38.306Z,464.40
2023-02-28T22:38:41.944Z,339.93
2023-02-28T22:43:45.300Z,216.33
2023-02-28T22:48:50.452Z,175.87
2023-02-28T22:53:54.575Z,150.13
2023-02-28T22:59:01.041Z,187.97
2023-02-28T23:04:04.514Z,209.47
2023-02-28T23:09:14.556Z,436.93
2023-02-28T23:14:19.021Z,447.50
2023-02-28T23:19:27.291Z,501.30
2023-02-28T23:24:32.771Z,463.77
2023-02-28T23:29:36.070Z,438.73
2023-02-28T23:34:38.365Z,450.87
2023-02-28T23:39:41.550Z,414.90
2023-02-28T23:44:43.940Z,404.17
2023-02-28T23:49:48.318Z,421.23
2023-02-28T23:54:50.680Z,374.33
2023-02-28T23:59:53.058Z,338.30
